sensor_id;sensor_type;location;lat;lon;timestamp;pressure;altitude;pressure_sealevel;temperature;humidity
64078;BME280;51039;49.696;10.808;2023-01-27T00:01:59;98612.94;;;-1.69;94.44
64078;BME280;51039;49.696;10.808;2023-01-27T00:04:24;98611.53;;;-1.62;94.22
64078;BME280;51039;49.696;10.808;2023-01-27T00:06:49;98608.94;;;-1.73;94.25
64078;BME280;51039;49.696;10.808;2023-01-27T00:09:14;98602.78;;;-1.61;94.52
64078;BME280;51039;49.696;10.808;2023-01-27T00:11:40;98609.38;;;-1.56;94.69
64078;BME280;51039;49.696;10.808;2023-01-27T00:14:23;98605.00;;;-1.56;94.62
64078;BME280;51039;49.696;10.808;2023-01-27T00:16:49;98614.94;;;-1.72;94.04
64078;BME280;51039;49.696;10.808;2023-01-27T00:19:14;98610.56;;;-1.72;95.10
64078;BME280;51039;49.696;10.808;2023-01-27T00:21:43;98611.03;;;-1.67;95.31
64078;BME280;51039;49.696;10.808;2023-01-27T00:24:28;98611.75;;;-1.53;94.81
64078;BME280;51039;49.696;10.808;2023-01-27T00:27:05;98613.16;;;-1.61;94.13
64078;BME280;51039;49.696;10.808;2023-01-27T00:29:33;98612.22;;;-1.71;94.54
64078;BME280;51039;49.696;10.808;2023-01-27T00:31:59;98600.44;;;-1.75;94.81
64078;BME280;51039;49.696;10.808;2023-01-27T00:34:42;98611.03;;;-1.67;94.56
64078;BME280;51039;49.696;10.808;2023-01-27T00:37:08;98608.19;;;-1.64;95.10
64078;BME280;51039;49.696;10.808;2023-01-27T00:39:33;98600.88;;;-1.59;94.89
64078;BME280;51039;49.696;10.808;2023-01-27T00:41:58;98601.94;;;-1.50;94.65
64078;BME280;51039;49.696;10.808;2023-01-27T00:44:24;98605.47;;;-1.62;94.70
64078;BME280;51039;49.696;10.808;2023-01-27T00:46:49;98608.94;;;-1.73;95.05
64078;BME280;51039;49.696;10.808;2023-01-27T00:49:14;98610.69;;;-1.62;95.33
64078;BME280;51039;49.696;10.808;2023-01-27T00:51:40;98610.09;;;-1.66;95.29
64078;BME280;51039;49.696;10.808;2023-01-27T00:54:06;98610.94;;;-1.65;95.15
64078;BME280;51039;49.696;10.808;2023-01-27T00:56:31;98612.47;;;-1.63;95.85
64078;BME280;51039;49.696;10.808;2023-01-27T00:58:57;98607.25;;;-1.51;95.65
64078;BME280;51039;49.696;10.808;2023-01-27T01:01:23;98612.69;;;-1.54;95.36
64078;BME280;51039;49.696;10.808;2023-01-27T01:03:48;98609.75;;;-1.72;96.33
64078;BME280;51039;49.696;10.808;2023-01-27T01:06:15;98609.16;;;-1.65;96.41
64078;BME280;51039;49.696;10.808;2023-01-27T01:08:41;98613.16;;;-1.72;95.77
64078;BME280;51039;49.696;10.808;2023-01-27T01:11:08;98610.94;;;-1.65;96.33
64078;BME280;51039;49.696;10.808;2023-01-27T01:13:37;98603.47;;;-1.59;95.96
64078;BME280;51039;49.696;10.808;2023-01-27T01:16:03;98611.84;;;-1.55;95.88
64078;BME280;51039;49.696;10.808;2023-01-27T01:18:30;98602.75;;;-1.49;95.79
64078;BME280;51039;49.696;10.808;2023-01-27T01:20:55;98606.78;;;-1.45;95.83
64078;BME280;51039;49.696;10.808;2023-01-27T01:23:21;98608.44;;;-1.44;95.47
64078;BME280;51039;49.696;10.808;2023-01-27T01:25:53;98611.16;;;-1.46;95.46
64078;BME280;51039;49.696;10.808;2023-01-27T01:28:19;98619.66;;;-1.44;95.46
64078;BME280;51039;49.696;10.808;2023-01-27T01:30:45;98616.69;;;-1.50;95.35
64078;BME280;51039;49.696;10.808;2023-01-27T01:33:11;98612.47;;;-1.74;96.14
64078;BME280;51039;49.696;10.808;2023-01-27T01:35:37;98616.25;;;-1.55;96.27
64078;BME280;51039;49.696;10.808;2023-01-27T01:38:03;98618.34;;;-1.49;95.86
64078;BME280;51039;49.696;10.808;2023-01-27T01:40:28;98608.56;;;-1.46;95.85
64078;BME280;51039;49.696;10.808;2023-01-27T01:42:58;98615.16;;;-1.53;95.37
64078;BME280;51039;49.696;10.808;2023-01-27T01:48:14;98611.72;;;-1.42;95.74
64078;BME280;51039;49.696;10.808;2023-01-27T01:50:46;98612.66;;;-1.43;95.59
64078;BME280;51039;49.696;10.808;2023-01-27T01:53:18;98614.34;;;-1.53;95.79
64078;BME280;51039;49.696;10.808;2023-01-27T01:55:51;98616.25;;;-1.55;96.34
64078;BME280;51039;49.696;10.808;2023-01-27T01:58:17;98607.84;;;-1.48;96.23
64078;BME280;51039;49.696;10.808;2023-01-27T02:00:44;98615.25;;;-1.43;96.03
64078;BME280;51039;49.696;10.808;2023-01-27T02:03:09;98614.44;;;-1.44;95.78
64078;BME280;51039;49.696;10.808;2023-01-27T02:05:36;98617.28;;;-1.47;95.63
64078;BME280;51039;49.696;10.808;2023-01-27T02:08:09;98613.84;;;-1.47;95.37
64078;BME280;51039;49.696;10.808;2023-01-27T02:10:39;98608.78;;;-1.71;95.92
64078;BME280;51039;49.696;10.808;2023-01-27T02:13:05;98614.72;;;-1.69;96.56
64078;BME280;51039;49.696;10.808;2023-01-27T02:15:30;98616.13;;;-1.65;96.56
64078;BME280;51039;49.696;10.808;2023-01-27T02:17:56;98621.44;;;-1.78;96.80
64078;BME280;51039;49.696;10.808;2023-01-27T02:20:33;98606.44;;;-1.74;97.05
64078;BME280;51039;49.696;10.808;2023-01-27T02:28:05;98612.22;;;-1.82;96.93
64078;BME280;51039;49.696;10.808;2023-01-27T02:30:32;98605.25;;;-1.82;97.08
64078;BME280;51039;49.696;10.808;2023-01-27T02:32:58;98605.97;;;-1.80;97.23
64078;BME280;51039;49.696;10.808;2023-01-27T02:35:26;98605.84;;;-1.78;96.95
64078;BME280;51039;49.696;10.808;2023-01-27T02:37:57;98605.16;;;-1.80;97.71
64078;BME280;51039;49.696;10.808;2023-01-27T02:40:23;98601.00;;;-1.71;97.22
64078;BME280;51039;49.696;10.808;2023-01-27T02:42:52;98598.66;;;-1.74;96.63
64078;BME280;51039;49.696;10.808;2023-01-27T02:45:20;98592.38;;;-1.72;97.30
64078;BME280;51039;49.696;10.808;2023-01-27T02:47:45;98593.78;;;-1.79;97.01
64078;BME280;51039;49.696;10.808;2023-01-27T02:50:10;98596.88;;;-1.85;97.23
64078;BME280;51039;49.696;10.808;2023-01-27T02:52:36;98603.13;;;-1.88;97.56
64078;BME280;51039;49.696;10.808;2023-01-27T02:55:01;98592.38;;;-1.83;97.27
64078;BME280;51039;49.696;10.808;2023-01-27T02:57:26;98599.84;;;-1.79;97.10
64078;BME280;51039;49.696;10.808;2023-01-27T02:59:52;98587.56;;;-1.88;96.75
64078;BME280;51039;49.696;10.808;2023-01-27T03:02:17;98606.06;;;-1.81;97.52
64078;BME280;51039;49.696;10.808;2023-01-27T03:04:47;98605.97;;;-1.80;96.43
64078;BME280;51039;49.696;10.808;2023-01-27T03:07:13;98606.78;;;-1.79;96.71
64078;BME280;51039;49.696;10.808;2023-01-27T03:09:38;98608.09;;;-1.73;96.26
64078;BME280;51039;49.696;10.808;2023-01-27T03:12:04;98605.03;;;-1.79;96.40
64078;BME280;51039;49.696;10.808;2023-01-27T03:14:47;98607.63;;;-1.79;96.21
64078;BME280;51039;49.696;10.808;2023-01-27T03:17:32;98605.63;;;-1.75;96.15
64078;BME280;51039;49.696;10.808;2023-01-27T03:20:16;98605.47;;;-1.73;95.59
64078;BME280;51039;49.696;10.808;2023-01-27T03:22:42;98604.44;;;-1.82;95.12
64078;BME280;51039;49.696;10.808;2023-01-27T03:25:07;98615.03;;;-1.85;95.63
64078;BME280;51039;49.696;10.808;2023-01-27T03:27:34;98621.91;;;-1.84;95.91
64078;BME280;51039;49.696;10.808;2023-01-27T03:29:59;98626.16;;;-1.72;95.62
64078;BME280;51039;49.696;10.808;2023-01-27T03:32:29;98621.91;;;-1.73;95.26
64078;BME280;51039;49.696;10.808;2023-01-27T03:34:55;98626.97;;;-1.71;95.10
64078;BME280;51039;49.696;10.808;2023-01-27T03:37:28;98621.22;;;-1.75;95.06
64078;BME280;51039;49.696;10.808;2023-01-27T03:40:14;98630.41;;;-1.82;94.93
64078;BME280;51039;49.696;10.808;2023-01-27T03:42:58;98625.91;;;-1.91;94.13
64078;BME280;51039;49.696;10.808;2023-01-27T03:45:49;98621.19;;;-1.98;94.33
64078;BME280;51039;49.696;10.808;2023-01-27T03:48:34;98621.53;;;-1.91;94.30
64078;BME280;51039;49.696;10.808;2023-01-27T03:51:02;98612.13;;;-1.81;93.75
64078;BME280;51039;49.696;10.808;2023-01-27T03:53:28;98611.16;;;-1.80;93.05
64078;BME280;51039;49.696;10.808;2023-01-27T03:55:54;98614.56;;;-1.79;93.03
64078;BME280;51039;49.696;10.808;2023-01-27T03:58:23;98621.91;;;-1.84;92.07
64078;BME280;51039;49.696;10.808;2023-01-27T04:00:51;98627.22;;;-1.86;92.26
64078;BME280;51039;49.696;10.808;2023-01-27T04:03:19;98617.91;;;-1.88;91.73
64078;BME280;51039;49.696;10.808;2023-01-27T04:06:04;98624.97;;;-1.90;91.17
64078;BME280;51039;49.696;10.808;2023-01-27T04:08:50;98623.69;;;-1.85;92.18
64078;BME280;51039;49.696;10.808;2023-01-27T04:11:15;98614.56;;;-1.79;93.41
64078;BME280;51039;49.696;10.808;2023-01-27T04:13:59;98620.34;;;-1.87;93.05
64078;BME280;51039;49.696;10.808;2023-01-27T04:16:26;98623.69;;;-1.85;93.41
64078;BME280;51039;49.696;10.808;2023-01-27T04:18:54;98626.03;;;-1.82;92.94
64078;BME280;51039;49.696;10.808;2023-01-27T04:21:20;98614.44;;;-1.89;93.60
64078;BME280;51039;49.696;10.808;2023-01-27T04:23:45;98614.00;;;-1.94;93.04
64078;BME280;51039;49.696;10.808;2023-01-27T04:26:10;98626.50;;;-1.88;92.89
64078;BME280;51039;49.696;10.808;2023-01-27T04:28:36;98620.50;;;-1.77;93.17
64078;BME280;51039;49.696;10.808;2023-01-27T04:31:01;98620.34;;;-1.75;92.97
64078;BME280;51039;49.696;10.808;2023-01-27T04:33:26;98631.81;;;-1.78;92.83
64078;BME280;51039;49.696;10.808;2023-01-27T04:35:52;98622.03;;;-1.86;93.41
64078;BME280;51039;49.696;10.808;2023-01-27T04:38:17;98626.50;;;-1.88;92.84
64078;BME280;51039;49.696;10.808;2023-01-27T04:40:42;98620.50;;;-1.88;93.07
64078;BME280;51039;49.696;10.808;2023-01-27T04:43:08;98622.50;;;-1.92;92.38
64078;BME280;51039;49.696;10.808;2023-01-27T04:45:33;98632.28;;;-1.95;92.87
64078;BME280;51039;49.696;10.808;2023-01-27T04:47:59;98633.91;;;-1.94;94.10
64078;BME280;51039;49.696;10.808;2023-01-27T04:50:24;98626.28;;;-1.96;92.60
64078;BME280;51039;49.696;10.808;2023-01-27T04:52:49;98629.69;;;-1.95;92.29
64078;BME280;51039;49.696;10.808;2023-01-27T04:55:15;98638.41;;;-1.97;91.98
64078;BME280;51039;49.696;10.808;2023-01-27T04:57:40;98634.06;;;-1.96;91.75
64078;BME280;51039;49.696;10.808;2023-01-27T05:00:05;98647.63;;;-2.04;91.94
64078;BME280;51039;49.696;10.808;2023-01-27T05:02:32;98639.84;;;-2.04;92.17
64078;BME280;51039;49.696;10.808;2023-01-27T05:04:57;98650.22;;;-2.04;91.36
64078;BME280;51039;49.696;10.808;2023-01-27T05:07:22;98647.16;;;-1.98;91.75
64078;BME280;51039;49.696;10.808;2023-01-27T05:09:48;98648.56;;;-1.93;91.80
64078;BME280;51039;49.696;10.808;2023-01-27T05:12:13;98646.91;;;-1.94;91.57
64078;BME280;51039;49.696;10.808;2023-01-27T05:14:39;98653.41;;;-2.00;90.95
64078;BME280;51039;49.696;10.808;2023-01-27T05:17:04;98644.88;;;-2.13;91.67
64078;BME280;51039;49.696;10.808;2023-01-27T05:19:29;98641.69;;;-2.17;92.71
64078;BME280;51039;49.696;10.808;2023-01-27T05:21:55;98636.25;;;-2.14;92.18
64078;BME280;51039;49.696;10.808;2023-01-27T05:24:20;98644.28;;;-2.17;92.18
64078;BME280;51039;49.696;10.808;2023-01-27T05:26:45;98645.09;;;-2.17;93.09
64078;BME280;51039;49.696;10.808;2023-01-27T05:29:10;98651.50;;;-2.09;92.23
64078;BME280;51039;49.696;10.808;2023-01-27T05:31:36;98650.06;;;-2.02;93.08
64078;BME280;51039;49.696;10.808;2023-01-27T05:34:01;98647.16;;;-1.98;92.61
64078;BME280;51039;49.696;10.808;2023-01-27T05:36:27;98650.31;;;-2.05;92.34
64078;BME280;51039;49.696;10.808;2023-01-27T05:38:53;98646.19;;;-2.08;92.17
64078;BME280;51039;49.696;10.808;2023-01-27T05:41:19;98652.34;;;-1.98;92.27
64078;BME280;51039;49.696;10.808;2023-01-27T05:43:46;98657.63;;;-2.10;91.78
64078;BME280;51039;49.696;10.808;2023-01-27T05:46:16;98665.41;;;-2.10;92.24
64078;BME280;51039;49.696;10.808;2023-01-27T05:48:44;98667.66;;;-2.17;92.02
64078;BME280;51039;49.696;10.808;2023-01-27T05:51:14;98661.19;;;-2.11;93.38
64078;BME280;51039;49.696;10.808;2023-01-27T05:53:42;98665.75;;;-2.15;92.19
64078;BME280;51039;49.696;10.808;2023-01-27T05:56:11;98664.38;;;-2.08;92.23
64078;BME280;51039;49.696;10.808;2023-01-27T05:58:39;98660.94;;;-2.08;91.20
64078;BME280;51039;49.696;10.808;2023-01-27T06:01:05;98663.06;;;-2.13;91.17
64078;BME280;51039;49.696;10.808;2023-01-27T06:03:39;98665.75;;;-2.15;90.45
64078;BME280;51039;49.696;10.808;2023-01-27T06:06:05;98665.16;;;-2.19;89.43
64078;BME280;51039;49.696;10.808;2023-01-27T06:08:32;98666.78;;;-2.18;89.47
64078;BME280;51039;49.696;10.808;2023-01-27T06:10:58;98676.34;;;-2.18;89.57
64078;BME280;51039;49.696;10.808;2023-01-27T06:13:23;98685.81;;;-2.17;89.39
64078;BME280;51039;49.696;10.808;2023-01-27T06:15:49;98686.13;;;-2.22;88.80
64078;BME280;51039;49.696;10.808;2023-01-27T06:18:15;98687.19;;;-2.24;88.29
64078;BME280;51039;49.696;10.808;2023-01-27T06:20:42;98694.63;;;-2.20;88.67
64078;BME280;51039;49.696;10.808;2023-01-27T06:23:09;98700.66;;;-2.19;88.93
64078;BME280;51039;49.696;10.808;2023-01-27T06:25:36;98696.91;;;-2.15;88.85
64078;BME280;51039;49.696;10.808;2023-01-27T06:28:03;98705.41;;;-2.13;89.11
64078;BME280;51039;49.696;10.808;2023-01-27T06:30:30;98704.59;;;-2.13;88.62
64078;BME280;51039;49.696;10.808;2023-01-27T06:32:55;98707.03;;;-2.12;88.59
64078;BME280;51039;49.696;10.808;2023-01-27T06:35:21;98700.81;;;-2.09;89.17
64078;BME280;51039;49.696;10.808;2023-01-27T06:37:46;98705.66;;;-2.05;88.93
64078;BME280;51039;49.696;10.808;2023-01-27T06:40:11;98697.88;;;-2.05;89.37
64078;BME280;51039;49.696;10.808;2023-01-27T06:42:37;98705.75;;;-2.06;89.07
64078;BME280;51039;49.696;10.808;2023-01-27T06:45:02;98706.59;;;-2.06;89.20
64078;BME280;51039;49.696;10.808;2023-01-27T06:47:27;98710.03;;;-2.05;89.40
64078;BME280;51039;49.696;10.808;2023-01-27T06:49:53;98707.53;;;-2.07;88.83
64078;BME280;51039;49.696;10.808;2023-01-27T06:52:18;98704.94;;;-2.07;89.20
64078;BME280;51039;49.696;10.808;2023-01-27T06:54:43;98700.22;;;-2.13;88.50
64078;BME280;51039;49.696;10.808;2023-01-27T06:57:09;98710.25;;;-2.08;88.48
64078;BME280;51039;49.696;10.808;2023-01-27T06:59:34;98719.09;;;-2.11;88.54
64078;BME280;51039;49.696;10.808;2023-01-27T07:02:00;98712.84;;;-2.08;88.73
64078;BME280;51039;49.696;10.808;2023-01-27T07:04:25;98717.81;;;-2.05;88.74
64078;BME280;51039;49.696;10.808;2023-01-27T07:06:51;98722.41;;;-2.09;88.80
64078;BME280;51039;49.696;10.808;2023-01-27T07:09:16;98730.69;;;-2.04;88.63
64078;BME280;51039;49.696;10.808;2023-01-27T07:11:41;98732.66;;;-2.07;88.61
64078;BME280;51039;49.696;10.808;2023-01-27T07:14:07;98725.03;;;-1.98;89.25
64078;BME280;51039;49.696;10.808;2023-01-27T07:16:32;98737.03;;;-1.97;88.74
64078;BME280;51039;49.696;10.808;2023-01-27T07:18:57;98737.03;;;-1.97;88.57
64078;BME280;51039;49.696;10.808;2023-01-27T07:21:23;98735.06;;;-1.93;88.35
64078;BME280;51039;49.696;10.808;2023-01-27T07:23:49;98730.22;;;-1.98;88.56
64078;BME280;51039;49.696;10.808;2023-01-27T07:26:14;98735.63;;;-2.01;88.11
64078;BME280;51039;49.696;10.808;2023-01-27T07:28:39;98742.25;;;-1.97;88.45
64078;BME280;51039;49.696;10.808;2023-01-27T07:31:04;98744.16;;;-1.87;88.29
64078;BME280;51039;49.696;10.808;2023-01-27T07:33:30;98738.00;;;-1.98;88.03
64078;BME280;51039;49.696;10.808;2023-01-27T07:35:55;98742.25;;;-1.97;88.12
64078;BME280;51039;49.696;10.808;2023-01-27T07:38:20;98742.75;;;-1.91;88.09
64078;BME280;51039;49.696;10.808;2023-01-27T07:40:46;98757.13;;;-1.87;88.22
64078;BME280;51039;49.696;10.808;2023-01-27T07:43:11;98746.53;;;-1.84;87.74
64078;BME280;51039;49.696;10.808;2023-01-27T07:45:37;98747.75;;;-1.77;87.97
64078;BME280;51039;49.696;10.808;2023-01-27T07:48:03;98744.28;;;-1.78;87.48
64078;BME280;51039;49.696;10.808;2023-01-27T07:50:30;98743.38;;;-1.76;87.53
64078;BME280;51039;49.696;10.808;2023-01-27T07:52:59;98755.28;;;-1.74;87.29
64078;BME280;51039;49.696;10.808;2023-01-27T07:55:28;98755.78;;;-1.69;87.37
64078;BME280;51039;49.696;10.808;2023-01-27T07:57:55;98760.16;;;-1.69;87.38
64078;BME280;51039;49.696;10.808;2023-01-27T08:00:21;98767.81;;;-1.68;87.29
64078;BME280;51039;49.696;10.808;2023-01-27T08:02:53;98766.84;;;-1.78;87.19
64078;BME280;51039;49.696;10.808;2023-01-27T08:05:20;98762.47;;;-1.78;87.72
64078;BME280;51039;49.696;10.808;2023-01-27T08:07:46;98761.53;;;-1.76;87.22
64078;BME280;51039;49.696;10.808;2023-01-27T08:10:12;98764.84;;;-1.74;87.67
64078;BME280;51039;49.696;10.808;2023-01-27T08:12:38;98774.41;;;-1.64;86.97
64078;BME280;51039;49.696;10.808;2023-01-27T08:15:03;98769.81;;;-1.60;87.52
64078;BME280;51039;49.696;10.808;2023-01-27T08:17:29;98769.00;;;-1.61;87.36
64078;BME280;51039;49.696;10.808;2023-01-27T08:19:54;98762.53;;;-1.55;87.09
64078;BME280;51039;49.696;10.808;2023-01-27T08:22:20;98763.94;;;-1.51;86.67
64078;BME280;51039;49.696;10.808;2023-01-27T08:24:45;98760.66;;;-1.42;86.30
64078;BME280;51039;49.696;10.808;2023-01-27T08:27:11;98768.34;;;-1.40;86.39
64078;BME280;51039;49.696;10.808;2023-01-27T08:29:36;98763.16;;;-1.29;86.93
64078;BME280;51039;49.696;10.808;2023-01-27T08:32:02;98767.28;;;-1.15;85.96
64078;BME280;51039;49.696;10.808;2023-01-27T08:34:27;98767.88;;;-1.11;86.08
64078;BME280;51039;49.696;10.808;2023-01-27T08:36:52;98769.88;;;-1.15;85.10
64078;BME280;51039;49.696;10.808;2023-01-27T08:39:18;98776.13;;;-1.17;85.68
64078;BME280;51039;49.696;10.808;2023-01-27T08:41:43;98779.91;;;-1.22;85.28
64078;BME280;51039;49.696;10.808;2023-01-27T08:44:08;98781.09;;;-1.14;85.11
64078;BME280;51039;49.696;10.808;2023-01-27T08:46:34;98782.28;;;-1.07;85.43
64078;BME280;51039;49.696;10.808;2023-01-27T08:48:59;98781.69;;;-1.11;85.02
64078;BME280;51039;49.696;10.808;2023-01-27T08:51:24;98775.69;;;-1.11;85.51
64078;BME280;51039;49.696;10.808;2023-01-27T08:53:50;98786.78;;;-0.98;84.67
64078;BME280;51039;49.696;10.808;2023-01-27T08:56:15;98775.66;;;-0.89;84.18
64078;BME280;51039;49.696;10.808;2023-01-27T08:58:41;98778.03;;;-0.86;84.59
64078;BME280;51039;49.696;10.808;2023-01-27T09:01:06;98784.63;;;-0.93;84.21
64078;BME280;51039;49.696;10.808;2023-01-27T09:03:33;98797.31;;;-0.88;84.26
64078;BME280;51039;49.696;10.808;2023-01-27T09:05:59;98789.13;;;-0.84;84.45
64078;BME280;51039;49.696;10.808;2023-01-27T09:08:25;98794.22;;;-0.82;84.46
64078;BME280;51039;49.696;10.808;2023-01-27T09:10:51;98790.91;;;-0.73;84.02
64078;BME280;51039;49.696;10.808;2023-01-27T09:13:17;98786.59;;;-0.40;83.64
64078;BME280;51039;49.696;10.808;2023-01-27T09:15:42;98785.97;;;-0.32;82.65
64078;BME280;51039;49.696;10.808;2023-01-27T09:18:08;98800.69;;;-0.54;82.49
64078;BME280;51039;49.696;10.808;2023-01-27T09:20:34;98797.72;;;-0.61;83.07
64078;BME280;51039;49.696;10.808;2023-01-27T09:23:03;98788.63;;;-0.55;82.59
64078;BME280;51039;49.696;10.808;2023-01-27T09:25:29;98789.09;;;-0.61;82.37
64078;BME280;51039;49.696;10.808;2023-01-27T09:27:55;98795.50;;;-0.54;82.78
64078;BME280;51039;49.696;10.808;2023-01-27T09:30:22;98794.81;;;-0.67;82.75
64078;BME280;51039;49.696;10.808;2023-01-27T09:32:48;98800.94;;;-0.68;82.93
64078;BME280;51039;49.696;10.808;2023-01-27T09:35:14;98799.53;;;-0.72;82.89
64078;BME280;51039;49.696;10.808;2023-01-27T09:37:42;98798.72;;;-0.84;83.00
64078;BME280;51039;49.696;10.808;2023-01-27T09:40:27;98799.53;;;-0.84;83.17
64078;BME280;51039;49.696;10.808;2023-01-27T09:45:51;98801.91;;;-0.81;82.82
64078;BME280;51039;49.696;10.808;2023-01-27T09:52:03;98803.31;;;-0.88;82.73
64078;BME280;51039;49.696;10.808;2023-01-27T09:59:36;98804.50;;;-0.69;81.81
64078;BME280;51039;49.696;10.808;2023-01-27T10:02:10;98805.31;;;-0.69;81.89
64078;BME280;51039;49.696;10.808;2023-01-27T10:04:58;98797.16;;;-0.75;82.05
64078;BME280;51039;49.696;10.808;2023-01-27T10:23:46;98810.13;;;-0.42;81.00
64078;BME280;51039;49.696;10.808;2023-01-27T10:29:02;98821.22;;;-0.40;81.75
64078;BME280;51039;49.696;10.808;2023-01-27T10:31:43;98826.75;;;-0.22;81.06
64078;BME280;51039;49.696;10.808;2023-01-27T10:34:27;98824.28;;;-0.23;80.97
64078;BME280;51039;49.696;10.808;2023-01-27T10:37:27;98802.22;;;-0.08;79.87
64078;BME280;51039;49.696;10.808;2023-01-27T10:40:14;98811.63;;;0.05;79.82
64078;BME280;51039;49.696;10.808;2023-01-27T10:43:03;98808.44;;;0.33;78.80
64078;BME280;51039;49.696;10.808;2023-01-27T10:50:46;98816.88;;;0.47;78.38
64078;BME280;51039;49.696;10.808;2023-01-27T10:53:24;98807.03;;;0.29;78.24
64078;BME280;51039;49.696;10.808;2023-01-27T10:56:01;98814.25;;;0.26;78.54
64078;BME280;51039;49.696;10.808;2023-01-27T10:58:54;98803.28;;;0.43;77.95
64078;BME280;51039;49.696;10.808;2023-01-27T11:01:46;98791.75;;;0.46;78.11
64078;BME280;51039;49.696;10.808;2023-01-27T11:04:27;98791.94;;;0.54;78.10
64078;BME280;51039;49.696;10.808;2023-01-27T11:06:56;98783.34;;;0.63;76.60
64078;BME280;51039;49.696;10.808;2023-01-27T11:09:35;98782.63;;;0.82;76.31
64078;BME280;51039;49.696;10.808;2023-01-27T11:12:11;98792.78;;;0.54;76.97
64078;BME280;51039;49.696;10.808;2023-01-27T11:14:48;98795.19;;;0.46;77.66
64078;BME280;51039;49.696;10.808;2023-01-27T11:17:18;98788.28;;;0.35;78.26
64078;BME280;51039;49.696;10.808;2023-01-27T11:22:55;98800.78;;;0.42;77.75
64078;BME280;51039;49.696;10.808;2023-01-27T11:25:31;98791.19;;;0.21;78.15
64078;BME280;51039;49.696;10.808;2023-01-27T11:36:34;98784.19;;;0.01;78.65
64078;BME280;51039;49.696;10.808;2023-01-27T11:39:00;98789.19;;;0.13;78.45
64078;BME280;51039;49.696;10.808;2023-01-27T11:41:28;98789.53;;;0.20;78.35
64078;BME280;51039;49.696;10.808;2023-01-27T11:43:58;98776.47;;;0.31;77.07
64078;BME280;51039;49.696;10.808;2023-01-27T11:46:27;98770.50;;;0.41;76.61
64078;BME280;51039;49.696;10.808;2023-01-27T11:48:55;98776.47;;;0.31;77.03
64078;BME280;51039;49.696;10.808;2023-01-27T11:51:25;98770.41;;;0.31;77.69
64078;BME280;51039;49.696;10.808;2023-01-27T11:54:02;98770.50;;;0.41;76.77
64078;BME280;51039;49.696;10.808;2023-01-27T11:56:34;98771.66;;;0.57;76.68
64078;BME280;51039;49.696;10.808;2023-01-27T11:59:05;98767.84;;;0.62;76.08
64078;BME280;51039;49.696;10.808;2023-01-27T12:01:46;98750.47;;;0.72;75.51
64078;BME280;51039;49.696;10.808;2023-01-27T12:04:24;98756.88;;;0.58;75.58
64078;BME280;51039;49.696;10.808;2023-01-27T12:06:59;98755.78;;;0.61;75.51
64078;BME280;51039;49.696;10.808;2023-01-27T12:09:36;98762.19;;;0.56;74.97
64078;BME280;51039;49.696;10.808;2023-01-27T12:14:37;98753.22;;;1.11;74.89
64078;BME280;51039;49.696;10.808;2023-01-27T12:17:02;98753.03;;;1.33;73.22
64078;BME280;51039;49.696;10.808;2023-01-27T12:19:34;98753.06;;;1.03;73.99
64078;BME280;51039;49.696;10.808;2023-01-27T12:22:16;98746.31;;;1.00;74.59
64078;BME280;51039;49.696;10.808;2023-01-27T12:24:52;98749.09;;;0.98;73.82
64078;BME280;51039;49.696;10.808;2023-01-27T12:27:22;98738.34;;;0.92;73.96
64078;BME280;51039;49.696;10.808;2023-01-27T12:29:51;98741.41;;;1.07;73.95
64078;BME280;51039;49.696;10.808;2023-01-27T12:32:21;98735.59;;;0.93;74.10
64078;BME280;51039;49.696;10.808;2023-01-27T12:34:53;98746.88;;;1.04;73.64
64078;BME280;51039;49.696;10.808;2023-01-27T12:37:28;98744.50;;;1.31;73.74
64078;BME280;51039;49.696;10.808;2023-01-27T12:39:58;98727.72;;;1.24;73.50
64078;BME280;51039;49.696;10.808;2023-01-27T12:42:35;98734.69;;;1.04;73.07
64078;BME280;51039;49.696;10.808;2023-01-27T12:47:53;98735.41;;;1.16;72.55
64078;BME280;51039;49.696;10.808;2023-01-27T12:50:21;98733.34;;;1.20;72.68
64078;BME280;51039;49.696;10.808;2023-01-27T12:52:52;98729.06;;;1.18;72.21
64078;BME280;51039;49.696;10.808;2023-01-27T12:55:28;98727.41;;;1.08;72.12
64078;BME280;51039;49.696;10.808;2023-01-27T12:57:56;98727.41;;;1.08;73.94
64078;BME280;51039;49.696;10.808;2023-01-27T13:00:21;98727.25;;;1.09;73.11
64078;BME280;51039;49.696;10.808;2023-01-27T13:02:47;98725.44;;;1.00;72.51
64078;BME280;51039;49.696;10.808;2023-01-27T13:05:14;98736.25;;;0.86;73.09
64078;BME280;51039;49.696;10.808;2023-01-27T13:07:45;98733.13;;;0.92;73.25
64078;BME280;51039;49.696;10.808;2023-01-27T13:10:16;98737.78;;;0.98;72.40
64078;BME280;51039;49.696;10.808;2023-01-27T13:12:51;98734.00;;;1.02;72.92
64078;BME280;51039;49.696;10.808;2023-01-27T13:15:23;98739.56;;;0.88;72.38
64078;BME280;51039;49.696;10.808;2023-01-27T13:17:55;98745.38;;;0.70;71.87
64078;BME280;51039;49.696;10.808;2023-01-27T13:20:33;98742.09;;;0.68;72.90
64078;BME280;51039;49.696;10.808;2023-01-27T13:23:17;98748.47;;;0.85;72.30
64078;BME280;51039;49.696;10.808;2023-01-27T13:25:54;98744.09;;;0.86;72.40
64078;BME280;51039;49.696;10.808;2023-01-27T13:28:32;98754.25;;;0.89;73.21
64078;BME280;51039;49.696;10.808;2023-01-27T13:31:05;98749.13;;;0.77;73.51
64078;BME280;51039;49.696;10.808;2023-01-27T13:33:46;98745.84;;;0.75;73.16
64078;BME280;51039;49.696;10.808;2023-01-27T13:38:52;98752.91;;;0.64;73.48
64078;BME280;51039;49.696;10.808;2023-01-27T13:42:11;98760.47;;;0.67;73.68
64078;BME280;51039;49.696;10.808;2023-01-27T13:52:57;98766.50;;;0.67;73.64
64078;BME280;51039;49.696;10.808;2023-01-27T13:56:14;98755.13;;;0.68;73.88
64078;BME280;51039;49.696;10.808;2023-01-27T14:01:14;98759.69;;;0.76;74.19
64078;BME280;51039;49.696;10.808;2023-01-27T14:12:10;98756.97;;;0.77;74.45
64078;BME280;51039;49.696;10.808;2023-01-27T14:20:50;98764.53;;;0.59;75.35
64078;BME280;51039;49.696;10.808;2023-01-27T14:28:16;98768.53;;;0.33;75.57
64078;BME280;51039;49.696;10.808;2023-01-27T14:31:00;98771.44;;;0.39;75.68
64078;BME280;51039;49.696;10.808;2023-01-27T14:33:41;98769.34;;;0.33;75.66
64078;BME280;51039;49.696;10.808;2023-01-27T14:36:13;98771.13;;;0.33;75.97
64078;BME280;51039;49.696;10.808;2023-01-27T14:41:55;98773.97;;;0.30;76.39